• Join FlightAware (Why Join?)
  • Login
  • US Flag 
02:37PM EDT


 

Airport Tracker/Info


-or-


 

Live Flight TrackerFlight Track Log ✈ SWA3232 ✈ 25-Oct-2013 ✈ KMDW - KIAD

Flight Track Log - Related Links

Times and Time Zones

All times are in EDT time to prevent confusion due to time zone crossing. See the SWA3232 flight status page for this flight to view local times or setup timezone preferences in your user account.

Time Position Orientation Groundspeed Altitude Reporting Facility
EDT Latitude Longitude Course Direction KTS MPH feet Rate Location/Type
10:40AM 41.8078 -87.6603 72° East 249 287 5,100  Level Chicago Center
10:41AM 41.8075 -87.5589 90° East 260 299 6,000 840 Climbing Chicago Center
10:42AM 41.7983 -87.4558 97° East 273 314 6,900 2,280 Climbing Chicago Center
10:43AM 41.7872 -87.3483 98° East 287 330 10,800 3,300 Climbing Chicago Center
10:44AM 41.7764 -87.2267 97° East 321 369 13,800 3,000 Climbing Chicago Center
10:45AM 41.7639 -87.0919 97° East 357 411 17,000 3,000 Climbing Chicago Center
10:46AM 41.7642 -86.9214 90° East 379 436 20,100 2,700 Climbing Chicago Center
10:47AM 41.7639 -86.7694 90° East 401 461 22,700 2,520 Climbing Chicago Center
10:48AM 41.7569 -86.5994 93° East 426 490 25,400 2,340 Climbing Chicago Center
10:49AM 41.7497 -86.4342 93° East 442 509 27,600 1,980 Climbing Chicago Center
10:50AM 41.7417 -86.2647 94° East 455 524 29,500 1,740 Climbing Chicago Center
10:51AM 41.7347 -86.0919 93° East 464 534 31,300 1,740 Climbing Chicago Center
10:52AM 41.7261 -85.9147 94° East 475 547 33,100 1,680 Climbing Chicago Center
10:53AM 41.7175 -85.7364 94° East 478 550 34,800 1,320 Climbing Chicago Center
10:54AM 41.7103 -85.5561 93° East 481 554 35,900 1,080 Climbing Chicago Center
10:55AM 41.6967 -85.3542 95° East 486 559 37,100 1,260 Climbing Chicago Center
10:56AM 41.6872 -85.1350 93° East 504 580 38,600 900 Climbing Chicago Center
10:57AM 41.6764 -84.9522 94° East 495 570 39,000 180 Climbing Chicago Center
10:58AM 41.6656 -84.7706 95° East 491 565 39,000  Level Chicago Center
10:59AM 41.6581 -84.5858 93° East 497 572 39,000  Level Chicago Center
11:00AM 41.6522 -84.4364 93° East 502 578 39,000  Level Cleveland Center
11:01AM 41.6422 -84.2508 94° East 503 579 39,000  Level Cleveland Center
11:02AM 41.6328 -84.0506 94° East 504 580 39,000  Level Cleveland Center
11:03AM 41.6239 -83.8656 94° East 504 580 39,000  Level Cleveland Center
11:04AM 41.6142 -83.6792 94° East 507 583 39,000  Level Cleveland Center
11:05AM 41.6036 -83.4914 94° East 511 588 39,000  Level Cleveland Center
11:06AM 41.5733 -83.3072 102° East 517 595 39,000  Level Cleveland Center
11:07AM 41.4814 -83.1369 126° Southeast 528 608 39,000  Level Cleveland Center
11:08AM 41.3806 -82.9531 126° Southeast 526 605 39,000  Level Cleveland Center
11:09AM 41.2928 -82.7975 127° Southeast 523 602 39,000  Level Cleveland Center
11:10AM 41.2047 -82.6433 127° Southeast 521 600 39,000  Level Cleveland Center
11:11AM 41.1175 -82.4908 127° Southeast 518 596 39,000  Level Cleveland Center
11:13AM 41.0308 -82.3364 127° Southeast 520 598 39,000  Level Cleveland Center
11:14AM 40.9442 -82.1872 128° Southeast 513 590 39,000  Level Cleveland Center
11:15AM 40.8450 -82.0133 127° Southeast 508 585 39,000  Level Cleveland Center
11:16AM 40.7592 -81.8650 127° Southeast 507 583 39,000  Level Cleveland Center
11:17AM 40.6733 -81.7186 128° Southeast 503 579 39,000  Level Cleveland Center
11:18AM 40.5881 -81.5711 127° Southeast 504 580 39,000  Level Cleveland Center
11:19AM 40.5022 -81.4256 128° Southeast 502 578 39,000  Level Cleveland Center
11:20AM 40.4178 -81.2825 128° Southeast 503 579 39,000  Level Cleveland Center
11:21AM 40.3331 -81.1375 127° Southeast 504 580 39,000  Level Cleveland Center
11:22AM 40.2303 -80.9639 128° Southeast 508 585 39,000  Level Cleveland Center
11:23AM 40.1533 -80.8103 123° Southeast 511 588 39,000  Level Cleveland Center
11:24AM 40.0767 -80.6561 123° Southeast 514 592 39,000  Level Cleveland Center
11:25AM 39.9983 -80.5022 124° Southeast 515 593 39,000  Level Cleveland Center
11:26AM 39.9211 -80.3478 123° Southeast 515 593 39,000 -420 Level Cleveland Center
11:27AM 39.8269 -80.1656 124° Southeast 514 592 38,200 -1,800 Descending Cleveland Center
11:28AM 39.7481 -80.0111 124° Southeast 516 594 35,400 -2,940 Descending Cleveland Center
11:29AM 39.6672 -79.8572 124° Southeast 519 597 32,200 -2,820 Descending Cleveland Center
11:30AM 39.5869 -79.7017 124° Southeast 523 602 29,700 -2,460 Descending Cleveland Center
11:31AM 39.5100 -79.5506 123° Southeast 509 586 27,200 -1,320 Descending Cleveland Center
11:32AM 39.4725 -79.3867 106° East 483 556 27,000 -1,260 Descending Cleveland Center
11:33AM 39.4364 -79.1931 104° East 467 537 24,700 -2,220 Descending Cleveland Center
11:34AM 39.4092 -79.0378 103° East 450 518 22,500 -2,100 Descending Cleveland Center
11:35AM 39.3833 -78.8922 103° East 429 494 20,500 -1,920 Descending Cleveland Center
11:36AM 39.3592 -78.7544 103° East 404 465 18,600 -1,860 Descending Cleveland Center
11:37AM 39.3303 -78.5994 104° East 380 437 16,400 -2,040 Descending Washington Center
11:38AM 39.3061 -78.4750 104° East 365 420 14,200 -2,040 Descending Washington Center
11:39AM 39.2819 -78.3589 105° East 353 406 12,300 -1,560 Descending Washington Center
11:40AM 39.2297 -78.2603 124° Southeast 331 381 11,100 -960 Descending Washington Center
11:41AM 39.1839 -78.1703 123° Southeast 319 367 10,400 -780 Descending Washington Center
11:42AM 39.1378 -78.0883 126° Southeast 299 344 9,600 -960 Descending Washington Center
11:43AM 39.0936 -78.0014 123° Southeast 293 337 8,600 -1,020 Descending Washington Center
11:44AM 39.0472 -77.9169 125° Southeast 293 337 7,600 -1,020 Descending Washington Center
11:45AM 39.0011 -77.8272 123° Southeast 287 330 6,600 -840 Descending Washington Center
11:46AM 38.9650 -77.7514 121° Southeast 287 330 6,000 -300 Descending Washington Center
11:47AM 38.9522 -77.6442 99° East 274 315 6,000  Level Washington Center
11:48AM 38.9000 -77.6000 147° Southeast 280 322 6,000 -120 Level Potomac TRACON
11:49AM 38.8500 -77.5667 153° Southeast 247 284 5,900 -600 Descending Potomac TRACON
11:50AM 38.8167 -77.5000 123° Southeast 181 208 4,800 -1,440 Descending Potomac TRACON
11:51AM 38.8333 -77.4667 57° Northeast 162 186 3,100 -1,620 Descending Potomac TRACON
11:52AM 38.8667 -77.4667 360° North 136 157 1,700 -1,140 Descending Potomac TRACON
11:53AM 38.9167 -77.4667 360° North 133 153 900 -840 Descending Potomac TRACON
11:55AM 38.9474 -77.4599 North  Level Estimated
12:02PM 38.9474 -77.4599 159° South  Level Estimated
12:03PM 38.9474 -77.4599 159° South  Level Estimated
12:04PM 38.9474 -77.4599 159° South  Level Estimated
12:05PM 38.9474 -77.4599 159° South  Level Estimated